• Join FlightAware (Why Join?)
  • Login
  • US Flag 
09:58AM EDT


 

Airport Tracker/Info


-or-


 

Live Flight TrackerFlight Track Log ✈ ASQ546T ✈ 20-Apr-2013 ✈ KIAH - KORF

Flight Track Log - Related Links

Times and Time Zones

All times are in EDT time to prevent confusion due to time zone crossing. See the ASQ546T flight status page for this flight to view local times or setup timezone preferences in your user account.

Time Position Orientation Groundspeed Altitude Reporting Facility
EDT Latitude Longitude Course Direction KTS MPH feet Rate Location/Type
08:47PM 29.9594 -95.3414 115° Southeast 161 185 700  Level Houston Center
08:48PM 29.9458 -95.3069 115° Southeast 199 229 2,200 1,920 Climbing Houston Center
08:49PM 29.9511 -95.2631 82° East 225 259 3,500 2,640 Climbing Houston Center
08:49PM 29.9567 -95.2211 81° East 241 277 5,200 2,520 Climbing Houston Center
08:50PM 29.9619 -95.1842 81° East 239 275 6,100 2,340 Climbing Houston Center
08:50PM 29.9614 -95.1361 91° East 284 327 7,600 2,520 Climbing Houston Center
08:51PM 29.9564 -95.0931 98° East 266 306 8,700 1,980 Climbing Houston Center
08:52PM 29.9447 -94.9964 98° East 295 339 10,900 1,740 Climbing Houston Center
08:53PM 29.9281 -94.8631 98° East 341 392 12,300 1,440 Climbing Houston Center
08:54PM 29.9133 -94.7375 98° East 377 434 13,900 1,560 Climbing Houston Center
08:55PM 29.8981 -94.6086 98° East 396 456 15,500 1,440 Climbing Houston Center
08:56PM 29.8822 -94.4861 98° East 403 464 16,900 1,380 Climbing Houston Center
08:57PM 29.8664 -94.3458 97° East 415 478 18,400 1,500 Climbing Houston Center
08:58PM 29.8586 -94.2111 94° East 421 484 20,000 1,440 Climbing Houston Center
08:59PM 29.8544 -94.0811 92° East 430 495 21,400 1,380 Climbing Houston Center
09:00PM 29.8631 -93.9417 86° East 436 502 22,900 1,500 Climbing Houston Center
09:01PM 29.8789 -93.8033 82° East 439 505 24,500 1,680 Climbing Houston Center
09:02PM 29.8964 -93.6361 83° East 440 506 26,300 1,620 Climbing Houston Center
09:03PM 29.9094 -93.4950 84° East 445 512 27,900 1,500 Climbing Houston Center
09:04PM 29.9247 -93.3553 83° East 444 511 29,400 1,440 Climbing Houston Center
09:05PM 29.9397 -93.2153 83° East 444 511 30,900 1,500 Climbing Houston Center
09:06PM 29.9561 -93.0769 82° East 441 507 32,500 1,380 Climbing Houston Center
09:07PM 29.9900 -92.9461 73° East 432 497 33,800 1,140 Climbing Houston Center
09:08PM 30.0253 -92.8169 72° East 428 493 34,900 540 Climbing Houston Center
09:09PM 30.0614 -92.6825 73° East 435 501 35,000  Climbing Houston Center
09:10PM 30.0992 -92.5372 73° East 461 531 35,000  Level Houston Center
09:11PM 30.1400 -92.3856 73° East 485 558 35,000  Level Houston Center
09:12PM 30.1911 -92.1964 73° East 509 586 35,000  Level Houston Center
09:13PM 30.2303 -92.0383 74° East 515 593 35,000  Level Houston Center
09:14PM 30.2719 -91.8806 73° East 516 594 35,000  Level Houston Center
09:15PM 30.3128 -91.7214 73° East 518 596 35,000  Level Houston Center
09:16PM 30.3553 -91.5656 72° East 516 594 35,000  Level Houston Center
09:17PM 30.3972 -91.4072 73° East 515 593 35,000  Level Houston Center
09:18PM 30.4364 -91.2475 74° East 516 594 35,000  Level Houston Center
09:19PM 30.4772 -91.0889 73° East 515 593 35,000  Level Houston Center
09:20PM 30.5158 -90.9306 74° East 513 590 35,000  Level Houston Center
09:21PM 30.5572 -90.7703 73° East 516 594 35,000  Level Houston Center
09:22PM 30.5964 -90.6100 74° East 517 595 35,000  Level Houston Center
09:23PM 30.6361 -90.4494 74° East 517 595 35,000  Level Houston Center
09:24PM 30.6750 -90.2883 74° East 517 595 35,000  Level Houston Center
09:25PM 30.7156 -90.1267 74° East 517 595 35,000  Level Houston Center
09:26PM 30.7542 -89.9636 75° East 518 596 35,000  Level Houston Center
09:27PM 30.8017 -89.7683 74° East 519 597 35,000  Level Houston Center
09:28PM 30.8472 -89.6089 72° East 516 594 35,000  Level Houston Center
09:29PM 30.9122 -89.4636 62° Northeast 507 583 35,000  Level Houston Center
09:30PM 30.9767 -89.3164 63° Northeast 509 586 35,000  Level Houston Center
09:31PM 31.0389 -89.1650 64° Northeast 516 594 35,000  Level Houston Center
09:32PM 31.1022 -89.0178 63° Northeast 510 587 35,000  Level Houston Center
09:33PM 31.1658 -88.8719 63° Northeast 507 583 35,000  Level Houston Center
09:34PM 31.2286 -88.7239 64° Northeast 504 580 35,000  Level Houston Center
09:35PM 31.2928 -88.5742 63° Northeast 510 587 35,000  Level Houston Center
09:36PM 31.3578 -88.4242 63° Northeast 511 588 35,000  Level Houston Center
09:37PM 31.4211 -88.2739 64° Northeast 510 587 35,000  Level Houston Center
09:38PM 31.4442 -88.2228 62° Northeast 489 563 35,000  Level Atlanta Center
09:39PM 31.5028 -88.0892 63° Northeast 495 570 35,000  Level Atlanta Center
09:40PM 31.5639 -87.9408 64° Northeast 500 575 35,000  Level Atlanta Center
09:41PM 31.6272 -87.7897 64° Northeast 500 575 35,000  Level Atlanta Center
09:42PM 31.6878 -87.6411 64° Northeast 500 575 35,000  Level Atlanta Center
09:43PM 31.7483 -87.4919 64° Northeast 500 575 35,000  Level Atlanta Center
09:44PM 31.8131 -87.3431 63° Northeast 500 575 35,000  Level Atlanta Center
09:45PM 31.8758 -87.1789 66° East 500 575 35,000  Level Atlanta Center
09:46PM 31.9358 -87.0294 65° Northeast 500 575 35,000  Level Atlanta Center
09:47PM 31.9958 -86.8794 65° Northeast 495 570 35,000  Level Atlanta Center
09:48PM 32.0575 -86.7319 64° Northeast 500 575 35,000  Level Atlanta Center
09:49PM 32.1167 -86.5989 62° Northeast 500 575 35,000  Level Atlanta Center
09:50PM 32.1761 -86.4508 65° Northeast 500 575 35,000  Level Atlanta Center
09:51PM 32.2417 -86.2833 65° Northeast 500 575 35,000  Level Atlanta Center
09:52PM 32.3086 -86.1622 57° Northeast 500 575 35,000  Level Atlanta Center
09:53PM 32.3942 -86.0314 52° Northeast 500 575 35,000  Level Atlanta Center
09:54PM 32.4758 -85.8928 55° Northeast 500 575 35,000  Level Atlanta Center
09:55PM 32.5572 -85.7517 56° Northeast 509 586 35,000  Level Atlanta Center
09:56PM 32.6403 -85.6175 54° Northeast 509 586 35,000  Level Atlanta Center
09:57PM 32.7192 -85.4758 56° Northeast 509 586 35,000  Level Atlanta Center
09:58PM 32.7981 -85.3411 55° Northeast 509 586 35,000  Level Atlanta Center
09:59PM 32.8786 -85.2039 55° Northeast 509 586 35,000  Level Atlanta Center
10:00PM 32.9656 -85.0589 54° Northeast 499 574 35,000  Level Atlanta Center
10:01PM 33.0481 -84.9211 54° Northeast 494 568 35,000  Level Atlanta Center
10:02PM 33.1261 -84.7831 56° Northeast 499 574 35,000  Level Atlanta Center
10:03PM 33.2042 -84.6444 56° Northeast 499 574 35,000  Level Atlanta Center
10:04PM 33.2842 -84.5036 56° Northeast 510 587 35,000  Level Atlanta Center
10:05PM 33.3639 -84.3672 55° Northeast 497 572 35,000  Level Atlanta Center
10:06PM 33.4414 -84.2256 57° Northeast 497 572 35,000  Level Atlanta Center
10:07PM 33.5208 -84.0861 56° Northeast 502 578 35,000  Level Atlanta Center
10:08PM 33.6000 -83.9464 56° Northeast 507 583 35,000  Level Atlanta Center
10:09PM 33.6792 -83.8067 56° Northeast 507 583 35,000  Level Atlanta Center
10:10PM 33.7561 -83.6667 57° Northeast 502 578 35,000  Level Atlanta Center
10:11PM 33.8350 -83.5261 56° Northeast 502 578 35,000  Level Atlanta Center
10:12PM 33.9114 -83.3881 56° Northeast 502 578 35,000  Level Atlanta Center
10:13PM 33.9711 -83.2322 65° Northeast 502 578 35,000  Level Atlanta Center
10:14PM 34.0203 -83.0939 67° East 497 572 35,000  Level Atlanta Center
10:15PM 34.0878 -82.9403 62° Northeast 502 578 35,000  Level Atlanta Center
10:16PM 34.1594 -82.7936 59° Northeast 502 578 35,000  Level Atlanta Center
10:17PM 34.2267 -82.6444 61° Northeast 502 578 35,000  Level Atlanta Center
10:18PM 34.2997 -82.4772 62° Northeast 502 578 35,000  Level Atlanta Center
10:19PM 34.3667 -82.3275 62° Northeast 502 578 35,000  Level Atlanta Center
10:20PM 34.4353 -82.1725 62° Northeast 502 578 35,000  Level Atlanta Center
10:21PM 34.5039 -82.0197 61° Northeast 502 578 35,000  Level Atlanta Center
10:22PM 34.5703 -81.8694 62° Northeast 502 578 35,000  Level Atlanta Center
10:23PM 34.6406 -81.7136 61° Northeast 513 590 35,000  Level Atlanta Center
10:24PM 34.7064 -81.5600 62° Northeast 507 583 35,000  Level Atlanta Center
10:25PM 34.7739 -81.4039 62° Northeast 507 583 35,000  Level Atlanta Center
10:26PM 34.8394 -81.2475 63° Northeast 522 601 35,000  Level Atlanta Center
10:27PM 34.9086 -81.0881 62° Northeast 522 601 35,000  Level Atlanta Center
10:28PM 34.9778 -80.9308 62° Northeast 522 601 35,000  Level Atlanta Center
10:29PM 35.0467 -80.7686 63° Northeast 527 606 35,000  Level Atlanta Center
10:30PM 35.1114 -80.6186 62° Northeast 513 590 35,000  Level Atlanta Center
10:32PM 35.2547 -80.2772 63° Northeast 510 587 35,000  Level Washington Center
10:33PM 35.3211 -80.1233 62° Northeast 505 581 35,000  Level Washington Center
10:34PM 35.3872 -79.9717 62° Northeast 505 581 35,000  Level Washington Center
10:35PM 35.4556 -79.8122 62° Northeast 510 587 35,000 -60 Level Washington Center
10:36PM 35.5194 -79.6547 63° Northeast 510 587 34,900 -780 Descending Washington Center
10:37PM 35.5875 -79.4972 62° Northeast 516 594 33,500 -1,500 Descending Washington Center
10:38PM 35.6508 -79.3419 63° Northeast 510 587 31,900 -1,440 Descending Washington Center
10:39PM 35.7072 -79.2064 63° Northeast 505 581 30,700 -1,320 Descending Washington Center
10:40PM 35.7722 -79.0533 62° Northeast 499 574 29,300 -1,500 Descending Washington Center
10:41PM 35.8350 -78.8972 64° Northeast 509 586 27,800 -1,500 Descending Washington Center
10:42PM 35.8997 -78.7408 63° Northeast 504 580 26,300 -1,500 Descending Washington Center
10:43PM 35.9600 -78.5892 64° Northeast 499 574 24,800 -1,200 Descending Washington Center
10:44PM 36.0219 -78.4400 63° Northeast 494 568 24,000 -420 Descending Washington Center
10:45PM 36.0797 -78.2931 64° Northeast 477 549 24,000  Level Washington Center
10:46PM 36.1414 -78.1436 63° Northeast 477 549 24,000  Level Washington Center
10:47PM 36.2008 -77.9908 64° Northeast 482 555 24,000  Level Washington Center
10:48PM 36.2644 -77.8358 63° Northeast 482 555 24,000  Level Washington Center
10:49PM 36.3236 -77.6828 64° Northeast 482 555 24,000 -600 Level Washington Center
10:50PM 36.3825 -77.5294 64° Northeast 482 555 22,900 -1,320 Descending Washington Center
10:51PM 36.4456 -77.3683 64° Northeast 474 545 21,400 -1,560 Descending Washington Center
10:51PM 36.4650 -77.3197 64° Northeast 474 545 20,800 -1,440 Descending Washington Center
10:52PM 36.4953 -77.2353 66° East 474 545 20,000 -1,440 Descending Washington Center
10:53PM 36.5319 -77.1428 64° Northeast 464 534 19,100 -1,440 Descending Washington Center
10:53PM 36.5536 -77.0942 61° Northeast 469 540 18,600 -1,440 Descending Washington Center
10:53PM 36.5708 -77.0428 67° East 459 528 18,100 -1,320 Descending Washington Center
10:54PM 36.6075 -76.9503 64° Northeast 462 532 17,300 -1,920 Descending Washington Center
10:54PM 36.6247 -76.8936 69° East 439 505 16,200 -2,640 Descending Washington Center
10:55PM 36.6528 -76.8061 68° East 430 495 14,700 -2,340 Descending Washington Center
10:55PM 36.6656 -76.7650 69° East 395 455 13,900 -1,920 Descending Washington Center
10:56PM 36.6914 -76.6825 69° East 401 461 12,800 -1,800 Descending Washington Center
10:56PM 36.7042 -76.6464 66° East 346 398 12,100 -1,680 Descending Washington Center
10:57PM 36.7214 -76.5869 70° East 359 413 11,100 -1,800 Descending Washington Center
10:57PM 36.7303 -76.5456 75° East 300 345 10,300 -2,280 Descending Washington Center
10:58PM 36.7222 -76.4886 100° East 296 341 8,900 -2,940 Descending Washington Center
10:58PM 36.7100 -76.4494 111° Southeast 277 319 7,400 -2,820 Descending Washington Center
10:59PM 36.7144 -76.4003 84° East 279 321 6,100 -2,580 Descending Washington Center
10:59PM 36.7294 -76.3669 61° Northeast 240 276 4,800 -2,520 Descending Washington Center
11:00PM 36.7525 -76.3333 49° Northeast 234 269 3,600 -2,040 Descending Washington Center
11:00PM 36.7797 -76.3153 28° Northeast 234 269 2,800 -1,740 Descending Washington Center
11:01PM 36.8111 -76.2794 42° Northeast 220 253 1,900 -1,320 Descending Washington Center
11:01PM 36.8281 -76.2692 26° Northeast 212 244 1,500 -960 Descending Washington Center
11:02PM 36.8658 -76.2331 37° Northeast 135 155 600 -900 Descending Washington Center